createdAt,value
2023-07-03T00:01:18.042Z,73.96
2023-07-03T00:03:44.517Z,74.23
2023-07-03T00:06:11.070Z,74.31
2023-07-03T00:08:37.556Z,74.25
2023-07-03T00:11:05.799Z,73.94
2023-07-03T00:13:32.964Z,73.95
2023-07-03T00:16:01.053Z,74.11
2023-07-03T00:18:29.626Z,74.33
2023-07-03T00:20:56.317Z,75.60
2023-07-03T00:23:23.417Z,74.61
2023-07-03T00:25:50.918Z,75.50
2023-07-03T00:28:18.030Z,74.83
2023-07-03T00:30:44.874Z,74.55
2023-07-03T00:33:12.058Z,73.72
2023-07-03T00:35:39.031Z,73.48
2023-07-03T00:38:05.590Z,72.93
2023-07-03T00:40:32.159Z,73.31
2023-07-03T00:42:58.678Z,73.92
2023-07-03T00:45:25.145Z,74.51
2023-07-03T00:47:52.854Z,74.13
2023-07-03T00:50:19.590Z,74.27
2023-07-03T00:52:52.942Z,73.45
2023-07-03T00:55:21.446Z,74.18
2023-07-03T00:57:48.010Z,73.69
2023-07-03T01:00:15.041Z,73.57
2023-07-03T01:02:49.870Z,72.71
2023-07-03T01:05:23.446Z,72.66
2023-07-03T01:07:51.817Z,73.40
2023-07-03T01:10:22.481Z,73.35
2023-07-03T01:12:55.079Z,73.56
2023-07-03T01:15:26.653Z,73.79
2023-07-03T01:17:55.708Z,74.22
2023-07-03T01:20:24.121Z,74.19
2023-07-03T01:23:04.449Z,74.01
2023-07-03T01:25:32.900Z,75.16
2023-07-03T01:28:01.607Z,74.42
2023-07-03T01:30:29.975Z,73.93
2023-07-03T01:32:58.312Z,74.39
2023-07-03T01:35:26.421Z,74.28
2023-07-03T01:37:55.628Z,74.90
2023-07-03T01:40:26.041Z,75.82
2023-07-03T01:42:53.669Z,75.79
2023-07-03T01:45:20.852Z,75.19
2023-07-03T01:47:47.698Z,76.14
2023-07-03T01:50:19.419Z,76.27
2023-07-03T01:52:55.690Z,76.01
2023-07-03T01:55:22.067Z,75.76
2023-07-03T01:57:57.780Z,76.37
2023-07-03T02:00:32.287Z,75.92
2023-07-03T02:03:02.145Z,75.57
2023-07-03T02:05:31.504Z,76.22
2023-07-03T02:08:01.888Z,75.97
2023-07-03T02:10:28.568Z,75.72
2023-07-03T02:12:55.165Z,74.31
2023-07-03T02:15:21.587Z,73.41
2023-07-03T02:17:48.044Z,71.80
2023-07-03T02:20:17.919Z,72.11
2023-07-03T02:22:44.587Z,70.91
2023-07-03T02:25:11.943Z,70.54
2023-07-03T02:27:38.589Z,70.98
2023-07-03T02:30:06.109Z,70.13
2023-07-03T02:32:39.751Z,70.32
2023-07-03T02:35:08.184Z,69.93
2023-07-03T02:37:34.925Z,69.91
2023-07-03T02:40:01.370Z,68.94
2023-07-03T02:42:27.810Z,69.42
2023-07-03T02:44:54.342Z,68.98
2023-07-03T02:47:21.059Z,69.18
2023-07-03T02:49:47.597Z,69.07
2023-07-03T02:52:14.040Z,69.15
2023-07-03T02:54:40.468Z,70.24
2023-07-03T02:57:06.964Z,70.46
2023-07-03T02:59:33.443Z,71.19
2023-07-03T03:01:59.955Z,71.09
2023-07-03T03:04:26.828Z,72.10
2023-07-03T03:06:53.993Z,72.51
2023-07-03T03:09:20.445Z,72.65
2023-07-03T03:11:46.915Z,72.75
2023-07-03T03:14:14.262Z,73.00
2023-07-03T03:16:40.896Z,73.32
2023-07-03T03:19:07.557Z,73.65
2023-07-03T03:21:34.065Z,74.71
2023-07-03T03:24:03.426Z,74.84
2023-07-03T03:26:29.842Z,75.14
2023-07-03T03:28:56.302Z,75.24
2023-07-03T03:31:22.783Z,76.29
2023-07-03T03:33:49.397Z,76.32
2023-07-03T03:36:16.121Z,75.85
2023-07-03T03:38:42.737Z,75.92
2023-07-03T03:41:09.380Z,75.79
2023-07-03T03:43:35.788Z,75.25
2023-07-03T03:46:03.669Z,75.40
2023-07-03T03:48:31.778Z,75.57
2023-07-03T03:50:58.712Z,75.63
2023-07-03T03:53:25.239Z,75.04
2023-07-03T03:55:53.582Z,74.88
2023-07-03T03:58:21.421Z,75.07
2023-07-03T04:00:48.685Z,74.68
2023-07-03T04:03:15.152Z,74.83
2023-07-03T04:05:42.580Z,74.63
2023-07-03T04:08:10.100Z,74.58
2023-07-03T04:10:37.463Z,74.48
2023-07-03T04:13:04.273Z,73.85
2023-07-03T04:15:36.829Z,73.36
2023-07-03T04:18:03.394Z,73.71
2023-07-03T04:20:30.056Z,73.54
2023-07-03T04:22:56.505Z,72.89
2023-07-03T04:25:23.038Z,73.06
2023-07-03T04:27:49.589Z,72.84
2023-07-03T04:30:16.657Z,72.79
2023-07-03T04:32:43.212Z,72.97
2023-07-03T04:35:09.715Z,73.40
2023-07-03T04:37:37.426Z,73.15
2023-07-03T04:40:04.727Z,73.46
2023-07-03T04:42:33.774Z,72.72
2023-07-03T04:45:03.008Z,72.43
2023-07-03T04:47:29.542Z,72.50
2023-07-03T04:49:59.405Z,71.56
2023-07-03T04:52:28.636Z,71.77
2023-07-03T04:54:55.394Z,71.73
2023-07-03T04:57:21.819Z,71.35
2023-07-03T04:59:50.103Z,71.20
2023-07-03T05:02:19.248Z,71.50
2023-07-03T05:04:46.300Z,71.79
2023-07-03T05:07:12.831Z,71.50
2023-07-03T05:09:39.316Z,72.30
2023-07-03T05:12:06.151Z,72.51
2023-07-03T05:14:32.592Z,72.27
2023-07-03T05:16:59.040Z,73.82
2023-07-03T05:19:25.474Z,75.46
2023-07-03T05:21:51.893Z,76.66
2023-07-03T05:24:18.937Z,76.90
2023-07-03T05:26:45.944Z,75.81
2023-07-03T05:29:12.512Z,75.29
2023-07-03T05:31:39.213Z,76.48
2023-07-03T05:34:05.706Z,76.62
2023-07-03T05:36:32.229Z,76.88
2023-07-03T05:38:58.691Z,77.07
2023-07-03T05:41:25.321Z,77.08
2023-07-03T05:43:52.115Z,76.41
2023-07-03T05:46:19.702Z,77.31
2023-07-03T05:48:46.536Z,77.34
2023-07-03T05:51:13.214Z,77.26
2023-07-03T05:53:39.680Z,76.56
2023-07-03T05:56:06.128Z,76.25
2023-07-03T05:58:33.380Z,76.04
2023-07-03T06:01:00.313Z,75.75
2023-07-03T06:03:27.229Z,75.35
2023-07-03T06:05:54.298Z,75.37
2023-07-03T06:08:21.007Z,74.79
2023-07-03T06:10:47.519Z,74.21
2023-07-03T06:13:14.824Z,74.43
2023-07-03T06:15:42.235Z,73.44
2023-07-03T06:18:09.097Z,72.27
2023-07-03T06:20:35.653Z,72.27
2023-07-03T06:23:02.252Z,71.93
2023-07-03T06:25:28.762Z,69.84
2023-07-03T06:27:55.261Z,69.99
2023-07-03T06:30:21.737Z,69.39
2023-07-03T06:32:48.178Z,68.86
2023-07-03T06:35:15.523Z,69.42
2023-07-03T06:37:42.067Z,69.17
2023-07-03T06:40:11.620Z,68.80
2023-07-03T06:42:39.076Z,69.08
2023-07-03T06:45:06.246Z,67.78
2023-07-03T06:47:32.692Z,69.13
2023-07-03T06:49:59.206Z,67.36
2023-07-03T06:52:25.632Z,67.85
2023-07-03T06:54:52.075Z,66.38
2023-07-03T06:57:18.506Z,65.64
2023-07-03T06:59:45.408Z,64.70
2023-07-03T07:02:11.928Z,66.11
2023-07-03T07:04:38.730Z,64.95
2023-07-03T07:07:05.429Z,65.16
2023-07-03T07:09:31.900Z,63.95
2023-07-03T07:11:58.552Z,63.41
2023-07-03T07:14:24.983Z,63.97
2023-07-03T07:16:51.777Z,63.37
2023-07-03T07:19:18.283Z,62.13
2023-07-03T07:21:45.640Z,59.92
2023-07-03T07:24:23.503Z,59.13
2023-07-03T07:26:55.728Z,60.72
2023-07-03T07:29:23.384Z,60.27
2023-07-03T07:31:49.872Z,61.76
2023-07-03T07:34:16.345Z,63.34
2023-07-03T07:36:42.850Z,63.87
2023-07-03T07:39:09.773Z,63.54
2023-07-03T07:41:36.713Z,62.73
2023-07-03T07:44:03.585Z,62.53
2023-07-03T07:46:32.757Z,60.66
2023-07-03T07:49:01.203Z,59.97
2023-07-03T07:51:28.067Z,61.38
2023-07-03T07:53:56.265Z,61.67
2023-07-03T07:56:24.275Z,61.65
2023-07-03T07:58:51.219Z,58.91
2023-07-03T08:01:17.895Z,58.97
2023-07-03T08:03:45.223Z,57.60
2023-07-03T08:06:14.034Z,58.44
2023-07-03T08:08:40.787Z,58.52
2023-07-03T08:11:10.174Z,54.69
2023-07-03T08:13:39.700Z,52.02
2023-07-03T08:16:06.760Z,49.85
2023-07-03T08:18:33.254Z,48.74
2023-07-03T08:20:59.748Z,49.13
2023-07-03T08:23:26.284Z,50.03
2023-07-03T08:25:54.789Z,54.14
2023-07-03T08:28:22.910Z,55.48
2023-07-03T08:30:49.400Z,54.94
2023-07-03T08:33:16.651Z,54.36
2023-07-03T08:38:13.339Z,54.29
2023-07-03T08:40:40.001Z,54.30
2023-07-03T08:43:11.145Z,55.12
2023-07-03T08:45:45.711Z,53.97
2023-07-03T08:48:20.288Z,53.28
2023-07-03T08:50:51.693Z,55.16
2023-07-03T08:53:21.482Z,56.93
2023-07-03T08:55:57.004Z,55.79
2023-07-03T08:58:23.594Z,55.04
2023-07-03T09:01:04.017Z,53.09
2023-07-03T09:03:56.969Z,51.34
2023-07-03T09:06:36.851Z,52.09
2023-07-03T09:09:24.288Z,54.22
2023-07-03T09:12:15.914Z,54.73
2023-07-03T09:14:47.283Z,51.08
2023-07-03T09:17:14.412Z,50.69
2023-07-03T09:19:50.054Z,50.46
2023-07-03T09:22:41.660Z,46.96
2023-07-03T09:25:15.790Z,48.07
2023-07-03T09:27:42.898Z,46.35
2023-07-03T09:30:14.875Z,45.53
2023-07-03T09:32:41.591Z,45.79
2023-07-03T09:35:19.324Z,43.80
2023-07-03T09:37:48.765Z,44.99
2023-07-03T09:40:23.787Z,45.09
2023-07-03T09:42:50.576Z,43.47
2023-07-03T09:45:22.622Z,41.10
2023-07-03T09:47:59.729Z,39.36
2023-07-03T09:50:37.706Z,38.82
2023-07-03T09:53:08.856Z,38.81
2023-07-03T09:55:37.457Z,38.20
2023-07-03T09:58:13.627Z,38.64
2023-07-03T10:01:01.823Z,38.47
2023-07-03T10:03:32.258Z,38.76
2023-07-03T10:13:59.579Z,42.23
2023-07-03T10:16:29.558Z,41.58
2023-07-03T10:18:58.883Z,41.72
2023-07-03T10:21:25.713Z,41.01
2023-07-03T10:23:52.888Z,38.81
2023-07-03T10:26:30.969Z,40.75
2023-07-03T10:29:05.251Z,40.67
2023-07-03T10:31:46.887Z,42.11
2023-07-03T10:34:38.439Z,41.27
2023-07-03T10:37:07.340Z,39.08
2023-07-03T10:39:42.640Z,39.35
2023-07-03T10:42:18.722Z,37.21
2023-07-03T10:44:47.812Z,38.33
2023-07-03T10:47:29.278Z,37.70
2023-07-03T10:49:58.312Z,38.96
2023-07-03T10:52:48.627Z,37.84
2023-07-03T10:55:30.183Z,40.23
2023-07-03T10:58:21.202Z,40.17
2023-07-03T11:01:08.597Z,39.38
2023-07-03T11:04:10.437Z,39.14
2023-07-03T11:06:52.089Z,41.00
2023-07-03T11:09:23.780Z,39.74
2023-07-03T11:12:23.184Z,38.71
2023-07-03T11:15:28.889Z,39.08
2023-07-03T11:23:44.330Z,42.49
2023-07-03T11:28:51.371Z,42.71
2023-07-03T11:31:19.325Z,40.03
2023-07-03T11:36:49.881Z,39.87
2023-07-03T11:44:38.995Z,37.50
2023-07-03T11:47:09.092Z,36.93
2023-07-03T11:50:03.953Z,37.45
2023-07-03T11:52:39.155Z,36.29
2023-07-03T11:55:11.495Z,36.32
2023-07-03T11:57:40.884Z,38.05
2023-07-03T12:00:23.166Z,39.37
2023-07-03T12:02:49.713Z,38.94
2023-07-03T12:05:44.769Z,38.74
2023-07-03T12:08:12.052Z,38.94
2023-07-03T12:10:42.370Z,40.58
2023-07-03T12:13:37.328Z,42.04
2023-07-03T12:16:08.816Z,43.11
2023-07-03T12:18:36.670Z,44.07
2023-07-03T12:21:05.862Z,44.37
2023-07-03T12:23:40.016Z,44.93
2023-07-03T12:26:10.086Z,45.65
2023-07-03T12:28:37.609Z,46.20
2023-07-03T12:31:11.839Z,46.12
2023-07-03T12:33:51.981Z,46.41
2023-07-03T12:36:26.056Z,45.67
2023-07-03T12:38:53.201Z,45.94
2023-07-03T12:41:27.871Z,45.90
2023-07-03T12:46:35.454Z,46.25
2023-07-03T12:49:19.142Z,44.88
2023-07-03T12:51:53.138Z,44.24
2023-07-03T12:54:21.830Z,42.01
2023-07-03T12:56:53.564Z,41.24
2023-07-03T12:59:22.914Z,41.23
2023-07-03T13:01:52.276Z,42.88
2023-07-03T13:04:34.834Z,42.70
2023-07-03T13:07:03.243Z,41.31
2023-07-03T13:09:32.146Z,41.72
2023-07-03T13:11:59.158Z,39.49
2023-07-03T13:14:28.637Z,42.06
2023-07-03T13:16:57.551Z,41.90
2023-07-03T13:19:37.418Z,43.19
2023-07-03T13:22:08.287Z,43.01
2023-07-03T13:24:43.413Z,44.72
2023-07-03T13:27:23.654Z,45.23
2023-07-03T13:29:52.369Z,45.55
2023-07-03T13:32:21.629Z,46.17
2023-07-03T13:35:03.591Z,47.86
2023-07-03T13:37:34.083Z,47.80
2023-07-03T13:40:02.614Z,47.85
2023-07-03T13:42:30.825Z,47.89
2023-07-03T13:44:57.389Z,47.69
2023-07-03T13:47:26.481Z,48.21
2023-07-03T13:49:54.923Z,48.96
2023-07-03T13:52:21.360Z,48.67
2023-07-03T13:54:47.838Z,48.35
2023-07-03T13:57:14.307Z,48.87
2023-07-03T13:59:40.728Z,48.50
2023-07-03T14:02:07.294Z,47.69
2023-07-03T14:04:33.924Z,48.89
2023-07-03T14:07:00.520Z,49.24
2023-07-03T14:09:27.172Z,50.01
2023-07-03T14:11:53.623Z,50.04
2023-07-03T14:14:20.712Z,50.89
2023-07-03T14:16:47.238Z,50.35
2023-07-03T14:19:13.685Z,51.38
2023-07-03T14:21:40.178Z,51.04
2023-07-03T14:24:06.748Z,52.99
2023-07-03T14:26:33.249Z,53.51
2023-07-03T14:28:59.770Z,53.65
2023-07-03T14:31:26.385Z,53.93
2023-07-03T14:33:52.871Z,53.37
2023-07-03T14:36:19.348Z,53.98
2023-07-03T14:38:45.818Z,54.17
2023-07-03T14:41:12.299Z,54.08
2023-07-03T14:43:38.761Z,54.28
2023-07-03T14:46:05.223Z,54.06
2023-07-03T14:48:31.753Z,53.92
2023-07-03T14:50:58.206Z,54.11
2023-07-03T14:53:24.700Z,57.90
2023-07-03T14:55:59.399Z,59.60
2023-07-03T14:58:26.726Z,66.03
2023-07-03T15:00:53.442Z,68.12
2023-07-03T15:03:20.251Z,69.96
2023-07-03T15:05:47.335Z,71.32
2023-07-03T15:08:15.135Z,73.35
2023-07-03T15:10:41.916Z,72.05
2023-07-03T15:13:08.479Z,72.04
2023-07-03T15:15:35.102Z,72.25
2023-07-03T15:18:05.324Z,71.25
2023-07-03T15:20:39.292Z,71.67
2023-07-03T15:23:06.199Z,71.53
2023-07-03T15:25:32.951Z,70.65
2023-07-03T15:27:59.467Z,71.09
2023-07-03T15:30:26.137Z,70.86
2023-07-03T15:32:54.240Z,69.45
2023-07-03T15:35:21.651Z,68.30
2023-07-03T15:37:48.259Z,67.25
2023-07-03T15:40:14.822Z,66.74
2023-07-03T15:42:41.363Z,63.96
2023-07-03T15:45:08.449Z,64.99
2023-07-03T15:47:37.564Z,64.97
2023-07-03T15:50:06.551Z,63.50
2023-07-03T15:52:33.330Z,63.10
2023-07-03T15:54:59.817Z,63.18
2023-07-03T15:57:28.582Z,62.39
2023-07-03T15:59:55.852Z,62.87
2023-07-03T16:02:23.373Z,61.39
2023-07-03T16:04:49.920Z,61.46
2023-07-03T16:07:16.707Z,61.34
2023-07-03T16:09:45.475Z,60.17
2023-07-03T16:12:12.114Z,60.58
2023-07-03T16:14:38.566Z,59.05
2023-07-03T16:17:05.163Z,59.40
2023-07-03T16:19:32.255Z,57.63
2023-07-03T16:21:58.880Z,58.15
2023-07-03T16:24:26.511Z,56.84
2023-07-03T16:26:54.789Z,56.51
2023-07-03T16:29:21.229Z,55.98
2023-07-03T16:31:47.933Z,55.62
2023-07-03T16:34:14.674Z,54.71
2023-07-03T16:36:41.440Z,55.73
2023-07-03T16:39:08.542Z,54.93
2023-07-03T16:41:46.329Z,54.20
2023-07-03T16:44:12.870Z,53.66
2023-07-03T16:46:40.285Z,53.34
2023-07-03T16:49:07.136Z,53.84
2023-07-03T16:51:33.610Z,54.31
2023-07-03T16:54:00.140Z,54.27
2023-07-03T16:56:28.255Z,55.32
2023-07-03T16:58:58.114Z,57.14
2023-07-03T17:01:27.813Z,67.31
2023-07-03T17:03:56.556Z,75.78
2023-07-03T17:06:32.325Z,77.18
2023-07-03T17:09:00.093Z,74.94
2023-07-03T17:11:26.568Z,77.48
2023-07-03T17:13:53.501Z,77.47
2023-07-03T17:16:20.764Z,78.08
2023-07-03T17:18:47.325Z,77.23
2023-07-03T17:21:13.906Z,77.90
2023-07-03T17:23:40.419Z,77.72
2023-07-03T17:26:06.956Z,78.68
2023-07-03T17:28:33.487Z,78.78
2023-07-03T17:31:00.060Z,78.90
2023-07-03T17:33:26.687Z,77.96
2023-07-03T17:35:54.082Z,77.05
2023-07-03T17:38:21.109Z,78.01
2023-07-03T17:40:49.239Z,77.54
2023-07-03T17:43:22.344Z,78.88
2023-07-03T17:45:49.416Z,77.24
2023-07-03T17:48:16.307Z,77.15
2023-07-03T17:50:46.662Z,76.14
2023-07-03T17:53:13.645Z,75.73
2023-07-03T17:55:41.712Z,74.79
2023-07-03T17:58:08.408Z,74.79
2023-07-03T18:00:35.126Z,74.22
2023-07-03T18:03:01.605Z,73.60
2023-07-03T18:05:28.112Z,71.42
2023-07-03T18:07:54.573Z,71.80
2023-07-03T18:10:20.994Z,71.91
2023-07-03T18:12:47.508Z,72.17
2023-07-03T18:15:14.870Z,71.35
2023-07-03T18:17:41.422Z,71.53
2023-07-03T18:20:08.849Z,72.07
2023-07-03T18:22:35.492Z,71.92
2023-07-03T18:25:02.869Z,72.59
2023-07-03T18:27:29.567Z,71.60
2023-07-03T18:29:56.044Z,71.36
2023-07-03T18:32:22.527Z,72.87
2023-07-03T18:34:49.046Z,70.93
2023-07-03T18:37:15.549Z,72.13
2023-07-03T18:39:41.997Z,71.54
2023-07-03T18:42:08.737Z,71.15
2023-07-03T18:44:35.187Z,71.64
2023-07-03T18:47:03.914Z,71.09
2023-07-03T18:49:30.998Z,70.77
2023-07-03T18:51:58.634Z,70.88
2023-07-03T18:54:25.513Z,71.37
2023-07-03T18:56:52.417Z,70.74
2023-07-03T18:59:18.860Z,70.25
2023-07-03T19:01:45.964Z,71.13
2023-07-03T19:04:12.821Z,70.81
2023-07-03T19:06:40.230Z,70.14
2023-07-03T19:09:07.469Z,71.14
2023-07-03T19:11:33.897Z,71.35
2023-07-03T19:14:00.563Z,70.68
2023-07-03T19:16:27.184Z,72.07
2023-07-03T19:18:54.963Z,70.99
2023-07-03T19:21:21.392Z,71.56
2023-07-03T19:23:47.834Z,71.28
2023-07-03T19:26:14.423Z,71.26
2023-07-03T19:28:40.957Z,71.24
2023-07-03T19:31:07.942Z,71.80
2023-07-03T19:33:34.355Z,72.19
2023-07-03T19:36:00.987Z,71.75
2023-07-03T19:38:28.183Z,72.01
2023-07-03T19:40:54.643Z,72.68
2023-07-03T19:43:21.162Z,74.37
2023-07-03T19:45:47.666Z,76.45
2023-07-03T19:48:14.289Z,77.93
2023-07-03T19:50:41.815Z,78.39
2023-07-03T19:53:10.206Z,78.87
2023-07-03T19:55:38.238Z,78.65
2023-07-03T19:58:05.511Z,76.74
2023-07-03T20:00:32.591Z,77.90
2023-07-03T20:02:59.193Z,77.41
2023-07-03T20:05:25.947Z,77.29
2023-07-03T20:07:52.640Z,78.47
2023-07-03T20:10:19.416Z,78.21
2023-07-03T20:12:50.486Z,77.37
2023-07-03T20:15:18.835Z,78.02
2023-07-03T20:17:45.865Z,78.19
2023-07-03T20:20:13.058Z,77.22
2023-07-03T20:22:39.518Z,77.05
2023-07-03T20:25:06.723Z,77.25
2023-07-03T20:27:33.235Z,77.34
2023-07-03T20:29:59.713Z,77.63
2023-07-03T20:32:26.172Z,77.26
2023-07-03T20:34:53.982Z,77.71
2023-07-03T20:37:21.411Z,77.63
2023-07-03T20:39:48.277Z,78.14
2023-07-03T20:42:15.109Z,77.91
2023-07-03T20:44:45.434Z,78.00
2023-07-03T20:47:15.050Z,78.39
2023-07-03T20:49:42.609Z,78.75
2023-07-03T20:52:09.094Z,78.81
2023-07-03T20:54:44.059Z,79.63
2023-07-03T20:57:11.445Z,79.42
2023-07-03T20:59:38.573Z,79.15
2023-07-03T21:02:05.354Z,79.46
2023-07-03T21:04:31.857Z,79.31
2023-07-03T21:07:00.182Z,79.23
2023-07-03T21:09:26.588Z,79.63
2023-07-03T21:11:53.022Z,79.70
2023-07-03T21:14:19.529Z,79.92
2023-07-03T21:16:46.059Z,80.01
2023-07-03T21:19:13.829Z,80.10
2023-07-03T21:21:41.597Z,80.23
2023-07-03T21:24:10.764Z,80.01
2023-07-03T21:26:37.374Z,80.26
2023-07-03T21:29:05.276Z,79.80
2023-07-03T21:31:35.276Z,80.23
2023-07-03T21:34:02.700Z,80.58
2023-07-03T21:36:31.645Z,80.37
2023-07-03T21:38:59.754Z,80.92
2023-07-03T21:41:29.540Z,80.78
2023-07-03T21:43:58.733Z,80.69
2023-07-03T21:46:27.361Z,80.48
2023-07-03T21:48:58.993Z,80.89
2023-07-03T21:51:27.871Z,80.27
2023-07-03T21:53:57.438Z,80.95
2023-07-03T21:56:27.959Z,80.30
2023-07-03T21:59:05.053Z,80.16
2023-07-03T22:01:38.553Z,79.99
2023-07-03T22:04:06.920Z,79.99
2023-07-03T22:06:33.723Z,79.90
2023-07-03T22:09:00.732Z,78.88
2023-07-03T22:11:28.456Z,78.99
2023-07-03T22:13:55.449Z,78.88
2023-07-03T22:16:22.140Z,78.67
2023-07-03T22:18:48.796Z,78.75
2023-07-03T22:21:16.222Z,78.82
2023-07-03T22:23:44.674Z,79.41
2023-07-03T22:26:11.676Z,78.79
2023-07-03T22:28:38.147Z,79.36
2023-07-03T22:31:05.694Z,78.84
2023-07-03T22:33:32.212Z,78.94
2023-07-03T22:35:58.979Z,79.65
2023-07-03T22:38:25.454Z,79.24
2023-07-03T22:40:52.622Z,79.42
2023-07-03T22:43:20.373Z,79.85
2023-07-03T22:45:47.302Z,80.91
2023-07-03T22:48:14.628Z,81.61
2023-07-03T22:50:41.708Z,80.23
2023-07-03T22:53:09.795Z,80.97
2023-07-03T22:55:40.860Z,81.22
2023-07-03T22:58:10.262Z,80.67
2023-07-03T23:00:40.184Z,80.88
2023-07-03T23:03:07.455Z,81.34
2023-07-03T23:05:34.678Z,82.07
2023-07-03T23:08:01.268Z,82.22
2023-07-03T23:10:27.774Z,81.38
2023-07-03T23:12:54.284Z,82.22
2023-07-03T23:15:20.688Z,81.86
2023-07-03T23:17:47.306Z,82.68
2023-07-03T23:20:15.568Z,81.67
2023-07-03T23:22:42.724Z,81.58
2023-07-03T23:25:10.128Z,81.93
2023-07-03T23:27:36.777Z,82.05
2023-07-03T23:30:05.573Z,81.81
2023-07-03T23:32:34.413Z,81.92
2023-07-03T23:35:01.400Z,81.50
2023-07-03T23:37:28.102Z,81.76
2023-07-03T23:39:54.855Z,81.25
2023-07-03T23:42:21.280Z,81.71
2023-07-03T23:44:47.723Z,81.69
2023-07-03T23:47:14.245Z,81.70
2023-07-03T23:49:40.857Z,81.94
2023-07-03T23:52:07.736Z,82.24
2023-07-03T23:54:34.319Z,82.06
2023-07-03T23:57:00.816Z,81.87
2023-07-03T23:59:28.067Z,81.82
